Data for 03/24/2009

Time Sea-Level Adjusted Pressure Absolute Pressure Temperature Relative Humidity Dew Point   
(mb) (inHg) (mb) (inHg) (C) (F) (%) (C) (F)
00:05 1020 30.12 849 25.07 -0.2 31.7 92 -1.4 29.5
00:10 1020 30.12 849 25.07 -0.1 31.9 91 -1.4 29.5
00:15 1020 30.12 849 25.07 -0.1 31.9 90 -1.5 29.4
00:20 1020 30.12 849 25.07 -0.1 31.9 91 -1.4 29.4
00:25 1020 30.12 849 25.07 0 32.1 90 -1.4 29.5
00:30 1020 30.12 849 25.07 0.1 32.1 89 -1.5 29.3
00:35 1020 30.12 849 25.07 0.2 32.4 90 -1.3 29.6
00:40 1019 30.09 849 25.07 0.1 32.1 91 -1.2 29.9
00:45 1019 30.09 849 25.07 -0.2 31.7 93 -1.2 29.9
00:50 1019 30.09 849 25.07 -0.3 31.4 94 -1.2 29.9
00:55 1019 30.09 849 25.07 -0.5 31.2 94 -1.3 29.7
01:00 1019 30.09 849 25.07 -0.5 31.1 95 -1.3 29.7
01:05 1019 30.09 849 25.07 -0.5 31.1 94 -1.3 29.6
01:10 1019 30.09 849 25.07 -0.6 30.9 95 -1.4 29.5
01:15 1019 30.09 849 25.07 -0.7 30.8 95 -1.4 29.5
01:20 1019 30.09 849 25.07 -0.5 31 94 -1.3 29.6
01:25 1019 30.09 849 25.07 -0.5 31.2 94 -1.3 29.6
01:30 1019 30.09 849 25.07 -0.4 31.2 94 -1.3 29.7
01:35 1019 30.09 849 25.07 -0.4 31.2 94 -1.3 29.6
01:40 1019 30.09 849 25.07 -0.4 31.3 93 -1.3 29.6
01:45 1019 30.09 849 25.07 -0.4 31.2 94 -1.3 29.6
01:50 1019 30.09 849 25.07 -0.4 31.3 93 -1.3 29.6
01:55 1019 30.09 849 25.07 -0.3 31.4 93 -1.3 29.6
02:00 1019 30.09 849 25.07 -0.3 31.5 91 -1.6 29.2
02:05 1019 30.09 849 25.07 -0.3 31.5 90 -1.7 29
02:10 1019 30.09 849 25.07 -0.3 31.5 90 -1.7 28.9
02:15 1019 30.09 849 25.07 -0.4 31.3 89 -2 28.3
02:20 1019 30.09 849 25.07 -0.3 31.4 87 -2.2 28
02:25 1019 30.09 849 25.07 -0.3 31.4 86 -2.3 27.9
02:30 1019 30.09 849 25.07 -0.3 31.5 87 -2.3 27.9
02:35 1019 30.09 849 25.07 -0.3 31.5 86 -2.3 27.8
02:40 1019 30.09 849 25.07 -0.4 31.4 86 -2.4 27.6
02:45 1019 30.09 849 25.07 -0.6 31 85 -2.8 27
02:50 1019 30.09 849 25.07 -0.7 30.8 85 -2.9 26.9
02:55 1019 30.09 849 25.07 -0.7 30.8 85 -3 26.7
03:00 1019 30.09 849 25.07 -0.7 30.7 84 -3.1 26.5
03:05 1019 30.09 849 25.07 -0.6 30.9 82 -3.2 26.2
03:10 1019 30.09 849 25.07 -0.6 30.9 82 -3.3 26.1
03:15 1019 30.09 849 25.07 -0.6 31 81 -3.5 25.8
03:20 1019 30.09 849 25.07 -0.5 31.1 81 -3.4 25.8
03:25 1019 30.09 849 25.07 -0.4 31.2 81 -3.3 26.1
03:30 1019 30.09 849 25.07 -0.3 31.4 81 -3.2 26.2
03:35 1019 30.09 849 25.07 -0.3 31.5 81 -3.1 26.4
03:40 1019 30.09 849 25.07 -0.3 31.5 81 -3.2 26.2
03:45 1019 30.09 849 25.07 -0.4 31.3 81 -3.2 26.2
03:50 1019 30.09 849 25.07 -0.5 31.1 81 -3.3 26.1
03:55 1019 30.09 849 25.07 -0.5 31.2 80 -3.5 25.7
04:00 1019 30.09 849 25.07 -0.5 31.1 81 -3.3 26
04:05 1019 30.09 849 25.07 -0.5 31.1 81 -3.4 25.9
04:10 1019 30.09 849 25.07 -0.5 31.1 80 -3.6 25.5
04:15 1019 30.09 849 25.07 -0.5 31.1 79 -3.7 25.4
04:20 1019 30.09 849 25.07 -0.5 31 80 -3.7 25.4
04:25 1019 30.09 849 25.07 -0.6 31 79 -3.7 25.3
04:30 1019 30.09 849 25.07 -0.6 31 77 -4.1 24.7
04:35 1019 30.09 849 25.07 -0.6 30.9 76 -4.3 24.3
04:40 1019 30.09 848 25.04 -0.7 30.8 76 -4.4 24
04:45 1019 30.09 848 25.04 -0.7 30.8 76 -4.5 24
04:50 1019 30.09 848 25.04 -0.7 30.8 75 -4.6 23.7
04:55 1019 30.09 848 25.04 -0.7 30.7 75 -4.5 23.8
05:00 1019 30.09 848 25.04 -0.7 30.7 75 -4.6 23.8
05:05 1019 30.09 848 25.04 -0.7 30.7 76 -4.5 23.8
05:10 1019 30.09 848 25.04 -0.7 30.7 75 -4.6 23.7
05:15 1019 30.09 849 25.07 -0.7 30.7 75 -4.5 23.8
05:20 1019 30.09 849 25.07 -0.7 30.7 75 -4.5 23.8
05:25 1019 30.09 849 25.07 -0.7 30.7 74 -4.8 23.4
05:30 1019 30.09 849 25.07 -0.8 30.6 74 -4.8 23.4
05:35 1019 30.09 849 25.07 -0.8 30.6 75 -4.8 23.4
05:40 1019 30.09 849 25.07 -0.8 30.6 75 -4.7 23.5
05:45 1019 30.09 849 25.07 -0.7 30.7 75 -4.5 23.8
05:50 1019 30.09 849 25.07 -0.9 30.4 77 -4.4 24.1
05:55 1019 30.09 848 25.04 -1 30.3 77 -4.5 23.9
06:00 1019 30.09 848 25.04 -1 30.2 78 -4.4 24
06:05 1019 30.09 848 25.04 -1.1 30.1 79 -4.3 24.2
06:10 1019 30.09 848 25.04 -1.2 29.9 78 -4.5 23.9
06:15 1019 30.09 848 25.04 -1.4 29.5 80 -4.5 24
06:20 1019 30.09 848 25.04 -1.5 29.3 79 -4.7 23.6
06:25 1019 30.09 848 25.04 -1.6 29 79 -4.9 23.2
06:30 1019 30.09 848 25.04 -1.8 28.7 79 -5.1 22.9
06:35 1019 30.09 848 25.04 -1.9 28.5 79 -5.1 22.9
06:40 1019 30.09 848 25.04 -2 28.5 81 -4.9 23.2
06:45 1019 30.09 848 25.04 -2.1 28.1 82 -4.8 23.3
06:50 1019 30.09 848 25.04 -2.1 28.2 82 -4.7 23.5
06:55 1019 30.09 848 25.04 -2.1 28.1 83 -4.6 23.6
07:00 1019 30.09 848 25.04 -2.1 28.2 83 -4.7 23.6
07:05 1019 30.09 848 25.04 -2.2 28.1 83 -4.7 23.5
07:10 1019 30.09 848 25.04 -2.3 27.9 83 -4.8 23.4
07:15 1019 30.09 848 25.04 -2.4 27.7 83 -4.9 23.2
07:20 1019 30.09 848 25.04 -2.2 28 81 -5 23
07:25 1019 30.09 848 25.04 -2.2 28.1 81 -5 22.9
07:30 1019 30.09 848 25.04 -2.2 28 81 -5.1 22.9
07:35 1019 30.09 848 25.04 -2.2 28 80 -5.3 22.5
07:40 1019 30.09 848 25.04 -2.1 28.3 80 -5.2 22.7
07:45 1019 30.09 849 25.07 -1.9 28.5 79 -5.2 22.7
07:50 1019 30.09 849 25.07 -1.8 28.7 78 -5.2 22.6
07:55 1019 30.09 849 25.07 -1.8 28.7 78 -5.1 22.8
08:00 1019 30.09 849 25.07 -1.8 28.7 78 -5.1 22.8
08:05 1019 30.09 849 25.07 -1.8 28.7 78 -5.2 22.6
08:10 1019 30.09 849 25.07 -1.7 28.9 78 -5.1 22.9
08:15 1019 30.09 849 25.07 -1.8 28.8 78 -5.1 22.7
08:20 1020 30.12 849 25.07 -1.8 28.8 78 -5.1 22.8
08:25 1020 30.12 849 25.07 -1.7 28.9 78 -5.1 22.8
08:30 1020 30.12 849 25.07 -1.7 29 78 -5.1 22.8
08:35 1020 30.12 849 25.07 -1.6 29.1 78 -5 22.9
08:40 1020 30.12 849 25.07 -1.6 29.1 77 -5.2 22.7
08:45 1020 30.12 849 25.07 -1.6 29.1 77 -5.2 22.6
08:50 1020 30.12 849 25.07 -1.5 29.4 75 -5.3 22.4
08:55 1020 30.12 849 25.07 -1.3 29.7 75 -5.1 22.8
09:00 1020 30.12 849 25.07 -1.1 30.1 74 -5.1 22.9
09:05 1020 30.12 849 25.07 -1 30.2 72 -5.3 22.4
09:10 1020 30.12 849 25.07 -1.4 29.5 75 -5.3 22.5
09:15 1020 30.12 849 25.07 -1.8 28.8 75 -5.7 21.7
09:20 1020 30.12 849 25.07 -1.4 29.4 73 -5.7 21.7
09:25 1020 30.12 849 25.07 -1 30.3 72 -5.3 22.4
09:30 1020 30.12 849 25.07 -1.3 29.7 71 -5.9 21.3
09:35 1020 30.12 849 25.07 -1.1 30.1 68 -6.3 20.7
09:40 1019 30.09 849 25.07 -0.4 31.3 66 -5.9 21.3
09:45 1020 30.12 849 25.07 -0.2 31.6 65 -5.9 21.3
09:50 1020 30.12 849 25.07 -0.8 30.6 67 -6.3 20.7
09:55 1019 30.09 849 25.07 -0.8 30.6 67 -6.2 20.9
10:00 1019 30.09 849 25.07 -0.8 30.5 66 -6.4 20.4
10:05 1019 30.09 849 25.07 -0.2 31.6 63 -6.4 20.4
10:10 1019 30.09 849 25.07 0.6 33.2 61 -6 21.2
10:15 1019 30.09 849 25.07 1.4 34.5 58 -5.9 21.3
10:20 1019 30.09 849 25.07 1.5 34.8 60 -5.5 22.2
10:25 1019 30.09 849 25.07 1.5 34.7 57 -6 21.2
10:30 1019 30.09 849 25.07 2.1 35.8 57 -5.7 21.8
10:35 1019 30.09 849 25.07 2.6 36.7 54 -5.8 21.5
10:40 1019 30.09 849 25.07 2.6 36.8 54 -5.8 21.6
10:45 1019 30.09 849 25.07 2.5 36.5 57 -5.2 22.6
10:50 1019 30.09 849 25.07 2.4 36.3 55 -5.8 21.5
10:55 1019 30.09 849 25.07 2.5 36.6 57 -5 22.9
11:00 1019 30.09 848 25.04 2.1 35.7 58 -5.3 22.4
11:05 1019 30.09 848 25.04 2.1 35.7 59 -5.2 22.7
11:10 1019 30.09 848 25.04 1.9 35.4 57 -5.7 21.8
11:15 1019 30.09 848 25.04 2.1 35.8 55 -6 21.3
11:20 1019 30.09 848 25.04 2.3 36.1 56 -5.6 22
11:25 1019 30.09 848 25.04 2.8 37 54 -5.7 21.7
11:30 1019 30.09 848 25.04 2.6 36.8 55 -5.4 22.2
11:35 1019 30.09 848 25.04 2.6 36.7 54 -5.7 21.7
11:40 1019 30.09 848 25.04 2.6 36.6 56 -5.5 22.2
11:45 1019 30.09 848 25.04 2.2 35.9 53 -6.5 20.3
11:50 1019 30.09 848 25.04 2.4 36.4 53 -6.3 20.7
11:55 1019 30.09 848 25.04 2.9 37.3 51 -6.2 20.8
12:00 1019 30.09 848 25.04 3.8 38.8 48 -6.2 20.9
12:05 1019 30.09 848 25.04 3.5 38.4 49 -6.2 20.9
12:10 1019 30.09 848 25.04 3.3 37.9 51 -5.8 21.5
12:15 1019 30.09 848 25.04 2.9 37.2 53 -5.8 21.5
12:20 1019 30.09 848 25.04 3.2 37.7 53 -5.6 21.9
12:25 1018 30.06 848 25.04 3.3 38 53 -5.3 22.5
12:30 1018 30.06 848 25.04 2.5 36.6 52 -6.3 20.6
12:35 1018 30.06 848 25.04 3.7 38.6 49 -6 21.2
12:40 1018 30.06 847 25.01 3.8 38.8 49 -6 21.2
12:45 1018 30.06 847 25.01 3.7 38.7 51 -5.6 21.9
12:50 1018 30.06 847 25.01 3.1 37.7 54 -5.3 22.5
12:55 1018 30.06 847 25.01 2.9 37.2 54 -5.4 22.2
13:00 1018 30.06 847 25.01 2.6 36.7 56 -5.3 22.5
13:05 1018 30.06 847 25.01 2.4 36.4 58 -5 23
13:10 1018 30.06 847 25.01 2.3 36.2 61 -4.5 23.9
13:15 1018 30.06 847 25.01 1.7 35.1 67 -3.8 25.2
13:20 1018 30.06 847 25.01 1.5 34.7 69 -3.5 25.7
13:25 1018 30.06 847 25.01 1.6 34.9 70 -3.2 26.2
13:30 1018 30.06 847 25.01 1.7 35 71 -3.1 26.4
13:35 1018 30.06 847 25.01 1.6 34.9 67 -3.8 25.2
13:40 1018 30.06 847 25.01 1.7 35 68 -3.6 25.5
13:45 1018 30.06 847 25.01 1.2 34.2 70 -3.6 25.5
13:50 1018 30.06 847 25.01 1.7 35 65 -4.2 24.4
13:55 1018 30.06 847 25.01 2.1 35.8 66 -3.7 25.4
14:00 1017 30.03 847 25.01 3.1 37.7 61 -3.7 25.3
14:05 1017 30.03 847 25.01 4.1 39.4 55 -4.2 24.5
14:10 1017 30.03 847 25.01 4.3 39.8 53 -4.4 24.2
14:15 1017 30.03 846 24.98 3.5 38.2 63 -2.9 26.9
14:20 1017 30.03 846 24.98 2.2 35.9 65 -3.8 25.2
14:25 1017 30.03 846 24.98 3.1 37.5 60 -4 24.8
14:30 1017 30.03 846 24.98 2.5 36.5 62 -3.9 24.9
14:35 1017 30.03 846 24.98 3 37.3 63 -3.4 26
14:40 1017 30.03 846 24.98 2.1 35.7 66 -3.6 25.5
14:45 1017 30.03 846 24.98 2.2 36 71 -2.4 27.6
14:50 1017 30.03 846 24.98 2.6 36.6 68 -2.8 26.9
14:55 1017 30.03 846 24.98 3 37.4 65 -2.8 26.9
15:00 1017 30.03 846 24.98 3.3 37.9 65 -2.6 27.3
15:05 1017 30.03 846 24.98 3.5 38.2 64 -2.7 27.1
15:10 1017 30.03 846 24.98 3.5 38.4 62 -3.1 26.4
15:15 1017 30.03 846 24.98 3 37.4 67 -2.6 27.4
15:20 1017 30.03 846 24.98 2.5 36.6 72 -1.9 28.5
15:25 1017 30.03 846 24.98 1.7 35.1 79 -1.6 29.1
15:30 1017 30.03 846 24.98 1.8 35.2 79 -1.4 29.5
15:35 1017 30.03 846 24.98 1.8 35.2 80 -1.3 29.7
15:40 1017 30.03 846 24.98 2.1 35.8 76 -1.7 29
15:45 1016 30 846 24.98 2.4 36.3 76 -1.5 29.3
15:50 1016 30 846 24.98 2.6 36.8 73 -1.8 28.8
15:55 1016 30 846 24.98 2.7 36.9 71 -2 28.3
16:00 1016 30 846 24.98 2.5 36.5 73 -1.8 28.8
16:05 1016 30 846 24.98 2.1 35.8 75 -1.8 28.8
16:10 1016 30 845 24.95 1.2 34.2 78 -2.2 28.1
16:15 1016 30 845 24.95 1.5 34.7 75 -2.4 27.6
16:20 1016 30 845 24.95 1.1 34.1 78 -2.3 27.8
16:25 1016 30 845 24.95 0.7 33.3 81 -2.2 28
16:30 1016 30 845 24.95 1.4 34.5 75 -2.6 27.3
16:35 1016 30 845 24.95 1.8 35.2 73 -2.6 27.3
16:40 1016 30 845 24.95 2.3 36.2 71 -2.4 27.7
16:45 1016 30 845 24.95 2.4 36.2 71 -2.3 27.8
16:50 1016 30 845 24.95 2.6 36.6 68 -2.8 27
16:55 1016 30 845 24.95 2.5 36.5 69 -2.7 27.1
17:00 1016 30 845 24.95 2.8 37 69 -2.4 27.7
17:05 1016 30 845 24.95 2.6 36.7 71 -2.1 28.2
17:10 1016 30 845 24.95 2.5 36.4 72 -2.1 28.3
17:15 1016 30 845 24.95 2.3 36.1 72 -2.2 28
17:20 1016 30 845 24.95 2.7 36.9 70 -2.1 28.2
17:25 1016 30 845 24.95 2.3 36.2 72 -2.1 28.2
17:30 1016 30 845 24.95 2.3 36.1 73 -2.2 28.1
17:35 1016 30 845 24.95 2.2 35.9 72 -2.3 27.9
17:40 1015 29.97 845 24.95 2.1 35.7 74 -2 28.4
17:45 1015 29.97 845 24.95 1.6 34.8 76 -2.3 27.9
17:50 1015 29.97 845 24.95 0.9 33.6 76 -2.9 26.8
17:55 1015 29.97 845 24.95 0.8 33.4 79 -2.4 27.7
18:00 1015 29.97 844 24.92 0.8 33.4 78 -2.6 27.3
18:05 1015 29.97 844 24.92 0.8 33.5 80 -2.3 27.9
18:10 1015 29.97 844 24.92 0.4 32.8 82 -2.4 27.8
18:15 1015 29.97 844 24.92 0.3 32.6 82 -2.4 27.6
18:20 1015 29.97 844 24.92 0.5 33 81 -2.4 27.6
18:25 1015 29.97 844 24.92 0.5 32.9 81 -2.4 27.8
18:30 1015 29.97 844 24.92 0.3 32.5 81 -2.7 27.2
18:35 1015 29.97 844 24.92 0.6 33.2 77 -2.9 26.8
18:40 1015 29.97 844 24.92 0.8 33.4 77 -2.8 27
18:45 1015 29.97 844 24.92 0.9 33.6 75 -3 26.6
18:50 1015 29.97 844 24.92 0.7 33.3 76 -3 26.5
18:55 1015 29.97 844 24.92 0.7 33.3 76 -3 26.5
19:00 1015 29.97 844 24.92 0.6 33.1 75 -3.3 26.1
19:05 1015 29.97 844 24.92 0.6 33.1 74 -3.6 25.6
19:10 1015 29.97 844 24.92 0.7 33.2 74 -3.5 25.8
19:15 1015 29.97 844 24.92 0.6 33 74 -3.6 25.5
19:20 1015 29.97 844 24.92 0.6 33.1 74 -3.4 25.8
19:25 1015 29.97 844 24.92 0.6 33.2 73 -3.7 25.3
19:30 1015 29.97 844 24.92 0.5 32.9 75 -3.5 25.8
19:35 1015 29.97 844 24.92 0.1 32.2 79 -3.1 26.5
19:40 1015 29.97 844 24.92 -0.1 31.8 81 -3 26.7
19:45 1015 29.97 844 24.92 -0.3 31.5 83 -2.7 27.1
19:50 1015 29.97 844 24.92 -0.2 31.7 83 -2.7 27.1
19:55 1015 29.97 844 24.92 -0.2 31.7 84 -2.6 27.3
20:00 1015 29.97 844 24.92 -0.1 31.8 83 -2.6 27.3
20:05 1015 29.97 844 24.92 -0.1 31.9 83 -2.6 27.3
20:10 1015 29.97 844 24.92 0 32 83 -2.5 27.6
20:15 1015 29.97 844 24.92 0 32 83 -2.6 27.3
20:20 1015 29.97 844 24.92 -0 32 84 -2.4 27.8
20:25 1015 29.97 844 24.92 0.2 32.3 84 -2.2 28
20:30 1015 29.97 844 24.92 0.2 32.4 84 -2.2 28.1
20:35 1015 29.97 844 24.92 0.1 32.1 87 -1.8 28.8
20:40 1015 29.97 844 24.92 -0.2 31.6 90 -1.7 28.9
20:45 1015 29.97 844 24.92 -0.4 31.3 90 -1.8 28.8
20:50 1015 29.97 844 24.92 -0.5 31.2 92 -1.6 29.1
20:55 1015 29.97 844 24.92 -0.7 30.7 93 -1.7 28.9
21:00 1015 29.97 844 24.92 -0.8 30.5 94 -1.7 28.9
21:05 1015 29.97 844 24.92 -0.9 30.4 94 -1.7 28.9
21:10 1015 29.97 844 24.92 -0.9 30.4 93 -1.8 28.7
21:15 1015 29.97 844 24.92 -0.9 30.4 94 -1.8 28.8
21:20 1015 29.97 844 24.92 -0.7 30.7 93 -1.7 28.9
21:25 1014 29.94 844 24.92 -0.6 30.9 92 -1.8 28.8
21:30 1014 29.94 844 24.92 -0.8 30.5 93 -1.8 28.8
21:35 1014 29.94 844 24.92 -1 30.2 94 -1.9 28.7
21:40 1014 29.94 844 24.92 -1.2 29.9 95 -1.9 28.5
21:45 1014 29.94 844 24.92 -1.3 29.7 95 -1.9 28.5
21:50 1014 29.94 844 24.92 -1.3 29.6 96 -1.9 28.5
21:55 1014 29.94 843 24.89 -1.3 29.7 95 -1.9 28.5
22:00 1014 29.94 843 24.89 -1.2 29.9 95 -1.9 28.5
22:05 1014 29.94 843 24.89 -1.1 30 94 -2 28.5
22:10 1014 29.94 843 24.89 -1.2 29.8 95 -2 28.4
22:15 1014 29.94 843 24.89 -1.2 29.8 94 -2.1 28.3
22:20 1014 29.94 843 24.89 -1.2 29.9 92 -2.3 27.9
22:25 1014 29.94 843 24.89 -1.3 29.7 92 -2.3 27.8
22:30 1014 29.94 843 24.89 -1.4 29.4 93 -2.4 27.6
22:35 1014 29.94 843 24.89 -1.4 29.5 92 -2.6 27.3
22:40 1014 29.94 843 24.89 -1.4 29.5 92 -2.6 27.3
22:45 1014 29.94 843 24.89 -1.5 29.3 92 -2.5 27.4
22:50 1014 29.94 843 24.89 -1.6 29.1 92 -2.8 26.9
22:55 1014 29.94 843 24.89 -1.5 29.3 89 -3 26.6
23:00 1014 29.94 843 24.89 -1.3 29.6 88 -3.1 26.5
23:05 1014 29.94 843 24.89 -1.2 29.9 88 -3 26.6
23:10 1014 29.94 843 24.89 -1.1 30.1 87 -2.9 26.7
23:15 1013 29.91 843 24.89 -1.1 30.1 87 -2.9 26.7
23:20 1013 29.91 843 24.89 -1.1 30.1 87 -3 26.6
23:25 1013 29.91 843 24.89 -1.1 30 87 -3 26.7
23:30 1013 29.91 843 24.89 -1.2 29.9 86 -3.2 26.3
23:35 1013 29.91 842 24.86 -1 30.2 84 -3.4 25.9
23:40 1013 29.91 842 24.86 -0.6 30.9 86 -2.7 27.1
23:45 1013 29.91 842 24.86 -0.9 30.5 85 -3.1 26.5
23:50 1013 29.91 842 24.86 -1.1 30 88 -2.9 26.8
23:55 1013 29.91 842 24.86 -1.2 29.9 87 -3 26.6
24:00 1013 29.91 842 24.86 -1 30.1 84 -3.4 25.9